KRVS/RVS METAR and TAF weather

Enter ICAO airport designator
Station Type Date Time Source
KRVS METAR 2022/09/26 08:53 UTC NOAA

KRVS 260853Z AUTO 00000KT 10SM CLR 12/08 A3010 RMK AO2 SLP198 T01220083 58002


Station Type Date Time Source
KRVS Decoded METAR 2022/09/26 08:53 UTC NOAA

TULSA JONES JR. AIRPORT, OK, United States (KRVS) 36-03N 095-59W 200M
Sep 26, 2022 - 04:53 AM EDT / 2022.09.26 0853 UTC
Wind: Calm:0
Visibility: 10 mile(s):0
Sky conditions: clear
Temperature: 54.0 F (12.2 C)
Dew Point: 46.9 F (8.3 C)
Relative Humidity: 77%
Pressure (altimeter): 30.1 in. Hg (1019 hPa)
Pressure tendency: 0.01 inches (0.2 hPa) lower than three hours ago
ob: KRVS 260853Z AUTO 00000KT 10SM CLR 12/08 A3010 RMK AO2 SLP198 T01220083 58002
cycle: 9

Station Type Date Time Source
KRVS TAF 2022/09/26 06:22 UTC NOAA

TAF KRVS 260520Z 2606/2706 35003KT P6SM SKC
FM261500 35008KT P6SM SKC
FM270000 00000KT P6SM SKC

Example: see airport list